RPC836 RPVB-RPLS
Flight info
| Callsign | RPC836 |
|---|---|
| Flight time | 1h 25m |
| Altitude | 8500 |
| Route | VFR |
| Aircraft | BE36/L-SDFGRY/S |
Departure
| Time | 2026-04-26 23:36 |
|---|---|
| Airport | Bacolod-Silay International Airport (RPVB) |
Arrival
| Time | 2026-04-27 01:02 |
|---|---|
| Airport | Danilo Atienza Air Base (RPLS) |
| Time | Latitude | Longitude | Altitude | Speed | Heading |
|---|---|---|---|---|---|
| 2026-04-26 23:19 | 10.77276 | 123.01374 | 80 ft | 0 kts | 30° |
| 2026-04-26 23:30 | 10.77276 | 123.01375 | 80 ft | 1 kts | 33° |
| 2026-04-26 23:30 | 10.77275 | 123.01400 | 82 ft | 5 kts | 70° |
| 2026-04-26 23:30 | 10.77281 | 123.01406 | 81 ft | 0 kts | 28° |
| 2026-04-26 23:32 | 10.77299 | 123.01415 | 82 ft | 7 kts | 28° |
| 2026-04-26 23:33 | 10.77328 | 123.01465 | 80 ft | 11 kts | 32° |
| 2026-04-26 23:33 | 10.77373 | 123.01511 | 88 ft | 10 kts | 119° |
| 2026-04-26 23:33 | 10.77324 | 123.01590 | 90 ft | 15 kts | 120° |
| 2026-04-26 23:33 | 10.77252 | 123.01658 | 88 ft | 17 kts | 177° |
| 2026-04-26 23:34 | 10.77129 | 123.01599 | 89 ft | 19 kts | 211° |
| 2026-04-26 23:34 | 10.77000 | 123.01521 | 89 ft | 18 kts | 211° |
| 2026-04-26 23:34 | 10.76926 | 123.01443 | 90 ft | 11 kts | 226° |
| 2026-04-26 23:34 | 10.76902 | 123.01458 | 90 ft | 5 kts | 52° |
| 2026-04-26 23:35 | 10.76925 | 123.01475 | 90 ft | 0 kts | 28° |
| 2026-04-26 23:35 | 10.76953 | 123.01491 | 92 ft | 27 kts | 30° |
| 2026-04-26 23:35 | 10.77338 | 123.01715 | 107 ft | 93 kts | 30° |
| 2026-04-26 23:36 | 10.77990 | 123.02092 | 294 ft | 118 kts | 30° |
| 2026-04-26 23:36 | 10.78733 | 123.02512 | 575 ft | 130 kts | 32° |
| 2026-04-26 23:36 | 10.79565 | 123.02962 | 852 ft | 141 kts | 30° |
| 2026-04-26 23:36 | 10.80536 | 123.03268 | 1051 ft | 153 kts | 7° |
| 2026-04-26 23:37 | 10.81602 | 123.03091 | 1343 ft | 161 kts | 344° |
| 2026-04-26 23:37 | 10.82651 | 123.02630 | 1608 ft | 167 kts | 337° |
| 2026-04-26 23:37 | 10.83708 | 123.02093 | 1842 ft | 172 kts | 337° |
| 2026-04-26 23:37 | 10.84778 | 123.01557 | 2122 ft | 171 kts | 337° |
| 2026-04-26 23:38 | 10.85844 | 123.01016 | 2366 ft | 171 kts | 336° |
| 2026-04-26 23:38 | 10.86914 | 123.00456 | 2572 ft | 175 kts | 335° |
| 2026-04-26 23:38 | 10.88002 | 122.99876 | 2782 ft | 177 kts | 335° |
| 2026-04-26 23:38 | 10.89082 | 122.99256 | 2996 ft | 179 kts | 332° |
| 2026-04-26 23:39 | 10.90090 | 122.98490 | 3104 ft | 188 kts | 319° |
| 2026-04-26 23:39 | 10.91039 | 122.97545 | 3202 ft | 190 kts | 317° |
| 2026-04-26 23:39 | 10.91996 | 122.96649 | 3369 ft | 188 kts | 322° |
| 2026-04-26 23:39 | 10.92985 | 122.95797 | 3562 ft | 185 kts | 322° |
| 2026-04-26 23:40 | 10.93961 | 122.94962 | 3767 ft | 183 kts | 322° |
| 2026-04-26 23:40 | 10.94932 | 122.94128 | 3973 ft | 182 kts | 322° |
| 2026-04-26 23:40 | 10.95898 | 122.93299 | 4189 ft | 181 kts | 323° |
| 2026-04-26 23:40 | 10.96861 | 122.92471 | 4411 ft | 181 kts | 322° |
| 2026-04-26 23:41 | 10.97825 | 122.91641 | 4624 ft | 182 kts | 323° |
| 2026-04-26 23:41 | 10.98796 | 122.90805 | 4810 ft | 184 kts | 323° |
| 2026-04-26 23:41 | 10.99774 | 122.89964 | 5000 ft | 184 kts | 323° |
| 2026-04-26 23:41 | 11.00760 | 122.89117 | 5192 ft | 186 kts | 323° |
| 2026-04-26 23:42 | 11.01750 | 122.88264 | 5385 ft | 187 kts | 322° |
| 2026-04-26 23:42 | 11.03760 | 122.86594 | 5782 ft | 187 kts | 328° |
| 2026-04-26 23:42 | 11.04820 | 122.85825 | 5976 ft | 187 kts | 327° |
| 2026-04-26 23:43 | 11.05861 | 122.85053 | 6166 ft | 187 kts | 327° |
| 2026-04-26 23:43 | 11.06917 | 122.84273 | 6360 ft | 188 kts | 327° |
| 2026-04-26 23:43 | 11.07975 | 122.83493 | 6545 ft | 188 kts | 327° |
| 2026-04-26 23:43 | 11.09036 | 122.82712 | 6729 ft | 188 kts | 327° |
| 2026-04-26 23:44 | 11.10099 | 122.81929 | 6911 ft | 189 kts | 327° |
| 2026-04-26 23:44 | 11.11162 | 122.81145 | 7094 ft | 189 kts | 327° |
| 2026-04-26 23:44 | 11.12228 | 122.80363 | 7285 ft | 189 kts | 327° |
| 2026-04-26 23:44 | 11.13298 | 122.79573 | 7475 ft | 190 kts | 327° |
| 2026-04-26 23:45 | 11.14371 | 122.78782 | 7630 ft | 193 kts | 327° |
| 2026-04-26 23:45 | 11.15467 | 122.77975 | 7775 ft | 195 kts | 327° |
| 2026-04-26 23:45 | 11.16572 | 122.77161 | 7925 ft | 197 kts | 327° |
| 2026-04-26 23:45 | 11.17684 | 122.76342 | 8071 ft | 198 kts | 327° |
| 2026-04-26 23:46 | 11.18801 | 122.75518 | 8213 ft | 198 kts | 327° |
| 2026-04-26 23:46 | 11.19917 | 122.74695 | 8340 ft | 198 kts | 327° |
| 2026-04-26 23:46 | 11.21032 | 122.73873 | 8460 ft | 198 kts | 327° |
| 2026-04-26 23:46 | 11.22153 | 122.73048 | 8499 ft | 201 kts | 327° |
| 2026-04-26 23:47 | 11.23300 | 122.72202 | 8506 ft | 205 kts | 327° |
| 2026-04-26 23:47 | 11.24474 | 122.71356 | 8512 ft | 208 kts | 328° |
| 2026-04-26 23:47 | 11.25644 | 122.70517 | 8513 ft | 209 kts | 326° |
| 2026-04-26 23:47 | 11.26809 | 122.69628 | 8512 ft | 209 kts | 325° |
| 2026-04-26 23:48 | 11.27976 | 122.68738 | 8518 ft | 211 kts | 326° |
| 2026-04-26 23:48 | 11.29159 | 122.67850 | 8517 ft | 212 kts | 326° |
| 2026-04-26 23:48 | 11.30345 | 122.66958 | 8519 ft | 212 kts | 326° |
| 2026-04-26 23:48 | 11.31537 | 122.66061 | 8516 ft | 213 kts | 326° |
| 2026-04-26 23:49 | 11.32735 | 122.65162 | 8510 ft | 213 kts | 326° |
| 2026-04-26 23:49 | 11.33926 | 122.64265 | 8512 ft | 213 kts | 326° |
| 2026-04-26 23:49 | 11.35114 | 122.63371 | 8510 ft | 212 kts | 326° |
| 2026-04-26 23:49 | 11.36294 | 122.62483 | 8509 ft | 210 kts | 326° |
| 2026-04-26 23:50 | 11.37474 | 122.61598 | 8515 ft | 210 kts | 326° |
| 2026-04-26 23:50 | 11.38647 | 122.60716 | 8512 ft | 209 kts | 326° |
| 2026-04-26 23:50 | 11.39815 | 122.59835 | 8513 ft | 209 kts | 326° |
| 2026-04-26 23:50 | 11.40983 | 122.58954 | 8504 ft | 209 kts | 326° |
| 2026-04-26 23:51 | 11.42153 | 122.58075 | 8512 ft | 209 kts | 326° |
| 2026-04-26 23:51 | 11.43322 | 122.57195 | 8508 ft | 209 kts | 326° |
| 2026-04-26 23:51 | 11.44485 | 122.56319 | 8500 ft | 207 kts | 326° |
| 2026-04-26 23:51 | 11.45640 | 122.55454 | 8502 ft | 206 kts | 326° |
| 2026-04-26 23:52 | 11.46793 | 122.54582 | 8500 ft | 207 kts | 326° |
| 2026-04-26 23:52 | 11.47948 | 122.53709 | 8487 ft | 207 kts | 327° |
| 2026-04-26 23:52 | 11.49093 | 122.52849 | 8495 ft | 207 kts | 326° |
| 2026-04-26 23:52 | 11.50254 | 122.51975 | 8489 ft | 208 kts | 327° |
| 2026-04-26 23:53 | 11.51435 | 122.51087 | 8497 ft | 208 kts | 326° |
| 2026-04-26 23:53 | 11.52588 | 122.50216 | 8496 ft | 209 kts | 326° |
| 2026-04-26 23:53 | 11.53752 | 122.49339 | 8496 ft | 209 kts | 327° |
| 2026-04-26 23:53 | 11.54920 | 122.48459 | 8494 ft | 209 kts | 326° |
| 2026-04-26 23:54 | 11.56086 | 122.47580 | 8491 ft | 208 kts | 326° |
| 2026-04-26 23:54 | 11.57251 | 122.46703 | 8489 ft | 208 kts | 326° |
| 2026-04-26 23:54 | 11.58414 | 122.45825 | 8488 ft | 208 kts | 326° |
| 2026-04-26 23:54 | 11.59580 | 122.44946 | 8487 ft | 208 kts | 326° |
| 2026-04-26 23:55 | 11.60744 | 122.44068 | 8485 ft | 208 kts | 326° |
| 2026-04-26 23:55 | 11.61906 | 122.43194 | 8485 ft | 207 kts | 326° |
| 2026-04-26 23:55 | 11.63065 | 122.42320 | 8477 ft | 207 kts | 326° |
| 2026-04-26 23:55 | 11.64225 | 122.41444 | 8485 ft | 207 kts | 326° |
| 2026-04-26 23:56 | 11.65383 | 122.40571 | 8483 ft | 207 kts | 326° |
| 2026-04-26 23:56 | 11.66540 | 122.39698 | 8482 ft | 207 kts | 326° |
| 2026-04-26 23:56 | 11.67697 | 122.38825 | 8480 ft | 207 kts | 326° |
| 2026-04-26 23:56 | 11.68906 | 122.38041 | 8482 ft | 205 kts | 338° |
| 2026-04-26 23:57 | 11.70201 | 122.37427 | 8482 ft | 205 kts | 338° |
| 2026-04-26 23:57 | 11.71492 | 122.36795 | 8478 ft | 206 kts | 338° |
| 2026-04-26 23:57 | 11.72782 | 122.36160 | 8483 ft | 206 kts | 338° |
| 2026-04-26 23:57 | 11.73635 | 122.35742 | 8483 ft | 206 kts | 338° |
| 2026-04-26 23:58 | 11.75361 | 122.34896 | 8482 ft | 205 kts | 338° |
| 2026-04-26 23:58 | 11.76646 | 122.34266 | 8473 ft | 205 kts | 338° |
| 2026-04-26 23:58 | 11.77930 | 122.33637 | 8482 ft | 205 kts | 338° |
| 2026-04-26 23:58 | 11.78782 | 122.33220 | 8482 ft | 205 kts | 338° |
| 2026-04-26 23:59 | 11.80065 | 122.32591 | 8483 ft | 205 kts | 338° |
| 2026-04-26 23:59 | 11.81350 | 122.31960 | 8474 ft | 205 kts | 338° |
| 2026-04-26 23:59 | 11.82630 | 122.31333 | 8480 ft | 204 kts | 338° |
| 2026-04-26 23:59 | 11.84347 | 122.30491 | 8477 ft | 204 kts | 338° |
| 2026-04-27 00:00 | 11.85610 | 122.29872 | 8488 ft | 204 kts | 338° |
| 2026-04-27 00:00 | 11.86474 | 122.29448 | 8489 ft | 204 kts | 337° |
| 2026-04-27 00:00 | 11.88165 | 122.28619 | 8489 ft | 204 kts | 338° |
| 2026-04-27 00:00 | 11.89030 | 122.28194 | 8490 ft | 204 kts | 338° |
| 2026-04-27 00:01 | 11.90310 | 122.27567 | 8493 ft | 204 kts | 338° |
| 2026-04-27 00:01 | 11.91573 | 122.26947 | 8495 ft | 204 kts | 338° |
| 2026-04-27 00:01 | 11.92857 | 122.26317 | 8496 ft | 205 kts | 338° |
| 2026-04-27 00:01 | 11.94142 | 122.25686 | 8497 ft | 205 kts | 338° |
| 2026-04-27 00:02 | 11.95427 | 122.25056 | 8505 ft | 205 kts | 338° |
| 2026-04-27 00:02 | 11.96712 | 122.24425 | 8505 ft | 205 kts | 338° |
| 2026-04-27 00:02 | 11.97999 | 122.23793 | 8505 ft | 205 kts | 338° |
| 2026-04-27 00:02 | 11.99281 | 122.23164 | 8506 ft | 205 kts | 338° |
| 2026-04-27 00:03 | 12.00568 | 122.22531 | 8500 ft | 205 kts | 338° |
| 2026-04-27 00:03 | 12.01851 | 122.21901 | 8500 ft | 205 kts | 338° |
| 2026-04-27 00:03 | 12.03138 | 122.21269 | 8500 ft | 205 kts | 338° |
| 2026-04-27 00:03 | 12.04424 | 122.20638 | 8501 ft | 205 kts | 338° |
| 2026-04-27 00:04 | 12.05711 | 122.20006 | 8504 ft | 205 kts | 338° |
| 2026-04-27 00:04 | 12.07002 | 122.19372 | 8504 ft | 205 kts | 338° |
| 2026-04-27 00:04 | 12.08286 | 122.18741 | 8498 ft | 205 kts | 338° |
| 2026-04-27 00:04 | 12.09575 | 122.18107 | 8504 ft | 205 kts | 338° |
| 2026-04-27 00:05 | 12.10860 | 122.17476 | 8502 ft | 205 kts | 338° |
| 2026-04-27 00:05 | 12.12143 | 122.16845 | 8496 ft | 205 kts | 337° |
| 2026-04-27 00:05 | 12.13429 | 122.16214 | 8502 ft | 204 kts | 337° |
| 2026-04-27 00:05 | 12.14709 | 122.15584 | 8501 ft | 204 kts | 338° |
| 2026-04-27 00:06 | 12.15989 | 122.14954 | 8502 ft | 204 kts | 337° |
| 2026-04-27 00:06 | 12.17270 | 122.14325 | 8502 ft | 204 kts | 337° |
| 2026-04-27 00:06 | 12.18549 | 122.13695 | 8502 ft | 204 kts | 337° |
| 2026-04-27 00:06 | 12.19815 | 122.13073 | 8502 ft | 204 kts | 337° |
| 2026-04-27 00:07 | 12.21094 | 122.12443 | 8502 ft | 204 kts | 337° |
| 2026-04-27 00:07 | 12.22375 | 122.11814 | 8502 ft | 204 kts | 337° |
| 2026-04-27 00:07 | 12.23653 | 122.11185 | 8504 ft | 204 kts | 337° |
| 2026-04-27 00:07 | 12.24933 | 122.10555 | 8504 ft | 204 kts | 338° |
| 2026-04-27 00:08 | 12.26214 | 122.09926 | 8503 ft | 204 kts | 337° |
| 2026-04-27 00:08 | 12.27491 | 122.09297 | 8503 ft | 204 kts | 337° |
| 2026-04-27 00:08 | 12.28769 | 122.08668 | 8503 ft | 204 kts | 337° |
| 2026-04-27 00:08 | 12.30050 | 122.08038 | 8503 ft | 204 kts | 338° |
| 2026-04-27 00:09 | 12.31288 | 122.07320 | 8496 ft | 207 kts | 324° |
| 2026-04-27 00:09 | 12.32385 | 122.06374 | 8500 ft | 206 kts | 323° |
| 2026-04-27 00:09 | 12.33491 | 122.05447 | 8502 ft | 206 kts | 323° |
| 2026-04-27 00:09 | 12.34600 | 122.04520 | 8505 ft | 207 kts | 323° |
| 2026-04-27 00:10 | 12.35713 | 122.03589 | 8509 ft | 207 kts | 323° |
| 2026-04-27 00:10 | 12.36826 | 122.02652 | 8507 ft | 208 kts | 323° |
| 2026-04-27 00:10 | 12.37942 | 122.01718 | 8511 ft | 207 kts | 323° |
| 2026-04-27 00:10 | 12.39054 | 122.00785 | 8509 ft | 207 kts | 323° |
| 2026-04-27 00:11 | 12.40166 | 121.99850 | 8506 ft | 207 kts | 323° |
| 2026-04-27 00:11 | 12.41279 | 121.98917 | 8504 ft | 207 kts | 323° |
| 2026-04-27 00:11 | 12.42389 | 121.97984 | 8504 ft | 206 kts | 323° |
| 2026-04-27 00:11 | 12.43498 | 121.97054 | 8504 ft | 206 kts | 323° |
| 2026-04-27 00:12 | 12.44605 | 121.96123 | 8505 ft | 206 kts | 323° |
| 2026-04-27 00:12 | 12.45716 | 121.95189 | 8505 ft | 207 kts | 323° |
| 2026-04-27 00:12 | 12.46832 | 121.94254 | 8506 ft | 208 kts | 323° |
| 2026-04-27 00:12 | 12.47951 | 121.93313 | 8506 ft | 208 kts | 323° |
| 2026-04-27 00:13 | 12.49070 | 121.92373 | 8509 ft | 208 kts | 323° |
| 2026-04-27 00:13 | 12.50187 | 121.91434 | 8509 ft | 208 kts | 323° |
| 2026-04-27 00:13 | 12.51306 | 121.90494 | 8509 ft | 208 kts | 324° |
| 2026-04-27 00:13 | 12.52427 | 121.89552 | 8510 ft | 209 kts | 323° |
| 2026-04-27 00:14 | 12.53536 | 121.88620 | 8510 ft | 209 kts | 323° |
| 2026-04-27 00:14 | 12.54658 | 121.87676 | 8509 ft | 209 kts | 323° |
| 2026-04-27 00:14 | 12.55782 | 121.86731 | 8509 ft | 209 kts | 323° |
| 2026-04-27 00:14 | 12.56922 | 121.85772 | 8509 ft | 210 kts | 323° |
| 2026-04-27 00:15 | 12.58034 | 121.84838 | 8512 ft | 210 kts | 324° |
| 2026-04-27 00:15 | 12.59162 | 121.83889 | 8512 ft | 210 kts | 324° |
| 2026-04-27 00:15 | 12.60292 | 121.82939 | 8513 ft | 210 kts | 323° |
| 2026-04-27 00:15 | 12.61420 | 121.81989 | 8513 ft | 210 kts | 323° |
| 2026-04-27 00:16 | 12.62546 | 121.81042 | 8513 ft | 209 kts | 323° |
| 2026-04-27 00:16 | 12.63669 | 121.80097 | 8513 ft | 209 kts | 323° |
| 2026-04-27 00:16 | 12.64792 | 121.79153 | 8513 ft | 209 kts | 323° |
| 2026-04-27 00:16 | 12.65915 | 121.78207 | 8513 ft | 208 kts | 323° |
| 2026-04-27 00:17 | 12.67035 | 121.77265 | 8512 ft | 208 kts | 323° |
| 2026-04-27 00:17 | 12.68153 | 121.76324 | 8512 ft | 208 kts | 323° |
| 2026-04-27 00:17 | 12.69269 | 121.75383 | 8512 ft | 208 kts | 323° |
| 2026-04-27 00:17 | 12.70390 | 121.74440 | 8511 ft | 208 kts | 323° |
| 2026-04-27 00:18 | 12.71507 | 121.73499 | 8517 ft | 208 kts | 323° |
| 2026-04-27 00:18 | 12.72623 | 121.72558 | 8516 ft | 208 kts | 323° |
| 2026-04-27 00:18 | 12.73741 | 121.71617 | 8516 ft | 208 kts | 323° |
| 2026-04-27 00:18 | 12.74856 | 121.70678 | 8517 ft | 208 kts | 323° |
| 2026-04-27 00:19 | 12.75973 | 121.69736 | 8517 ft | 208 kts | 323° |
| 2026-04-27 00:19 | 12.77093 | 121.68793 | 8517 ft | 208 kts | 323° |
| 2026-04-27 00:19 | 12.78209 | 121.67853 | 8517 ft | 208 kts | 323° |
| 2026-04-27 00:19 | 12.79328 | 121.66910 | 8520 ft | 208 kts | 323° |
| 2026-04-27 00:20 | 12.80446 | 121.65968 | 8514 ft | 208 kts | 322° |
| 2026-04-27 00:20 | 12.81565 | 121.65025 | 8514 ft | 208 kts | 323° |
| 2026-04-27 00:20 | 12.82688 | 121.64081 | 8514 ft | 208 kts | 323° |
| 2026-04-27 00:20 | 12.83805 | 121.63134 | 8519 ft | 208 kts | 322° |
| 2026-04-27 00:21 | 12.84924 | 121.62190 | 8522 ft | 208 kts | 322° |
| 2026-04-27 00:21 | 12.86044 | 121.61246 | 8521 ft | 209 kts | 323° |
| 2026-04-27 00:21 | 12.87165 | 121.60301 | 8522 ft | 209 kts | 322° |
| 2026-04-27 00:21 | 12.88287 | 121.59355 | 8522 ft | 209 kts | 322° |
| 2026-04-27 00:22 | 12.89395 | 121.58420 | 8520 ft | 209 kts | 322° |
| 2026-04-27 00:22 | 12.90520 | 121.57471 | 8520 ft | 209 kts | 322° |
| 2026-04-27 00:22 | 12.91641 | 121.56525 | 8520 ft | 209 kts | 322° |
| 2026-04-27 00:22 | 12.92764 | 121.55577 | 8520 ft | 209 kts | 323° |
| 2026-04-27 00:23 | 12.93884 | 121.54632 | 8520 ft | 209 kts | 323° |
| 2026-04-27 00:23 | 12.95007 | 121.53683 | 8519 ft | 209 kts | 323° |
| 2026-04-27 00:23 | 12.96126 | 121.52738 | 8520 ft | 209 kts | 323° |
| 2026-04-27 00:23 | 12.97247 | 121.51792 | 8526 ft | 209 kts | 322° |
| 2026-04-27 00:24 | 12.98367 | 121.50846 | 8528 ft | 208 kts | 322° |
| 2026-04-27 00:24 | 12.99488 | 121.49899 | 8528 ft | 208 kts | 322° |
| 2026-04-27 00:24 | 13.00608 | 121.48953 | 8528 ft | 208 kts | 322° |
| 2026-04-27 00:24 | 13.01714 | 121.48019 | 8528 ft | 209 kts | 322° |
| 2026-04-27 00:25 | 13.02833 | 121.47073 | 8532 ft | 208 kts | 322° |
| 2026-04-27 00:25 | 13.03964 | 121.46117 | 8534 ft | 209 kts | 322° |
| 2026-04-27 00:25 | 13.05087 | 121.45169 | 8534 ft | 209 kts | 322° |
| 2026-04-27 00:25 | 13.06194 | 121.44232 | 8535 ft | 209 kts | 322° |
| 2026-04-27 00:26 | 13.07319 | 121.43283 | 8529 ft | 209 kts | 322° |
| 2026-04-27 00:26 | 13.08440 | 121.42334 | 8529 ft | 209 kts | 322° |
| 2026-04-27 00:26 | 13.09560 | 121.41386 | 8530 ft | 209 kts | 322° |
| 2026-04-27 00:26 | 13.10683 | 121.40438 | 8535 ft | 209 kts | 322° |
| 2026-04-27 00:27 | 13.11807 | 121.39486 | 8531 ft | 209 kts | 322° |
| 2026-04-27 00:27 | 13.12928 | 121.38537 | 8531 ft | 209 kts | 322° |
| 2026-04-27 00:27 | 13.14050 | 121.37589 | 8531 ft | 209 kts | 322° |
| 2026-04-27 00:27 | 13.15171 | 121.36641 | 8531 ft | 209 kts | 322° |
| 2026-04-27 00:28 | 13.16290 | 121.35694 | 8534 ft | 208 kts | 322° |
| 2026-04-27 00:28 | 13.17409 | 121.34747 | 8533 ft | 208 kts | 322° |
| 2026-04-27 00:28 | 13.18526 | 121.33801 | 8533 ft | 208 kts | 322° |
| 2026-04-27 00:28 | 13.19643 | 121.32856 | 8534 ft | 208 kts | 322° |
| 2026-04-27 00:29 | 13.20762 | 121.31908 | 8528 ft | 208 kts | 322° |
| 2026-04-27 00:29 | 13.21880 | 121.30962 | 8528 ft | 208 kts | 322° |
| 2026-04-27 00:29 | 13.22996 | 121.30016 | 8528 ft | 208 kts | 322° |
| 2026-04-27 00:29 | 13.24114 | 121.29072 | 8530 ft | 208 kts | 322° |
| 2026-04-27 00:30 | 13.25231 | 121.28124 | 8529 ft | 208 kts | 322° |
| 2026-04-27 00:30 | 13.26346 | 121.27178 | 8530 ft | 208 kts | 322° |
| 2026-04-27 00:30 | 13.27465 | 121.26232 | 8530 ft | 209 kts | 322° |
| 2026-04-27 00:30 | 13.28585 | 121.25283 | 8530 ft | 209 kts | 322° |
| 2026-04-27 00:31 | 13.29703 | 121.24335 | 8528 ft | 208 kts | 322° |
| 2026-04-27 00:31 | 13.30824 | 121.23384 | 8528 ft | 209 kts | 323° |
| 2026-04-27 00:31 | 13.31944 | 121.22435 | 8530 ft | 209 kts | 323° |
| 2026-04-27 00:31 | 13.33070 | 121.21481 | 8531 ft | 210 kts | 322° |
| 2026-04-27 00:32 | 13.34184 | 121.20541 | 8531 ft | 211 kts | 323° |
| 2026-04-27 00:32 | 13.35323 | 121.19568 | 8530 ft | 210 kts | 322° |
| 2026-04-27 00:32 | 13.36429 | 121.18630 | 8530 ft | 209 kts | 322° |
| 2026-04-27 00:32 | 13.37548 | 121.17683 | 8531 ft | 209 kts | 322° |
| 2026-04-27 00:33 | 13.38670 | 121.16731 | 8530 ft | 210 kts | 322° |
| 2026-04-27 00:33 | 13.39798 | 121.15775 | 8530 ft | 210 kts | 322° |
| 2026-04-27 00:33 | 13.40925 | 121.14818 | 8529 ft | 209 kts | 322° |
| 2026-04-27 00:33 | 13.42047 | 121.13865 | 8529 ft | 210 kts | 323° |
| 2026-04-27 00:34 | 13.43174 | 121.12910 | 8527 ft | 210 kts | 323° |
| 2026-04-27 00:34 | 13.44299 | 121.11957 | 8529 ft | 209 kts | 322° |
| 2026-04-27 00:34 | 13.45418 | 121.11005 | 8530 ft | 208 kts | 322° |
| 2026-04-27 00:34 | 13.46535 | 121.10057 | 8528 ft | 209 kts | 323° |
| 2026-04-27 00:35 | 13.47661 | 121.09099 | 8529 ft | 210 kts | 323° |
| 2026-04-27 00:35 | 13.48790 | 121.08142 | 8527 ft | 211 kts | 322° |
| 2026-04-27 00:35 | 13.49920 | 121.07182 | 8526 ft | 210 kts | 322° |
| 2026-04-27 00:35 | 13.51048 | 121.06224 | 8525 ft | 211 kts | 322° |
| 2026-04-27 00:36 | 13.52177 | 121.05264 | 8526 ft | 211 kts | 322° |
| 2026-04-27 00:36 | 13.53307 | 121.04306 | 8527 ft | 210 kts | 322° |
| 2026-04-27 00:36 | 13.54419 | 121.03360 | 8527 ft | 210 kts | 321° |
| 2026-04-27 00:36 | 13.55541 | 121.02406 | 8526 ft | 210 kts | 322° |
| 2026-04-27 00:37 | 13.56681 | 121.01437 | 8526 ft | 210 kts | 322° |
| 2026-04-27 00:37 | 13.57793 | 121.00493 | 8528 ft | 210 kts | 322° |
| 2026-04-27 00:37 | 13.58922 | 120.99531 | 8528 ft | 211 kts | 322° |
| 2026-04-27 00:37 | 13.60052 | 120.98572 | 8529 ft | 210 kts | 321° |
| 2026-04-27 00:38 | 13.61177 | 120.97614 | 8528 ft | 210 kts | 321° |
| 2026-04-27 00:38 | 13.62299 | 120.96660 | 8528 ft | 209 kts | 321° |
| 2026-04-27 00:38 | 13.63419 | 120.95708 | 8523 ft | 209 kts | 321° |
| 2026-04-27 00:38 | 13.64541 | 120.94752 | 8519 ft | 210 kts | 322° |
| 2026-04-27 00:39 | 13.65670 | 120.93791 | 8506 ft | 211 kts | 322° |
| 2026-04-27 00:39 | 13.66803 | 120.92828 | 8507 ft | 212 kts | 322° |
| 2026-04-27 00:39 | 13.67938 | 120.91863 | 8508 ft | 211 kts | 322° |
| 2026-04-27 00:39 | 13.69068 | 120.90900 | 8507 ft | 211 kts | 322° |
| 2026-04-27 00:40 | 13.70198 | 120.89937 | 8507 ft | 211 kts | 321° |
| 2026-04-27 00:40 | 13.71334 | 120.88970 | 8505 ft | 212 kts | 322° |
| 2026-04-27 00:40 | 13.72468 | 120.88007 | 8506 ft | 212 kts | 322° |
| 2026-04-27 00:40 | 13.73606 | 120.87037 | 8504 ft | 212 kts | 322° |
| 2026-04-27 00:41 | 13.74728 | 120.86081 | 8502 ft | 212 kts | 322° |
| 2026-04-27 00:41 | 13.75863 | 120.85113 | 8503 ft | 212 kts | 322° |
| 2026-04-27 00:41 | 13.76993 | 120.84151 | 8499 ft | 211 kts | 322° |
| 2026-04-27 00:41 | 13.78127 | 120.83185 | 8501 ft | 211 kts | 321° |
| 2026-04-27 00:42 | 13.79253 | 120.82225 | 8478 ft | 211 kts | 321° |
| 2026-04-27 00:42 | 13.80382 | 120.81264 | 8393 ft | 212 kts | 322° |
| 2026-04-27 00:42 | 13.81518 | 120.80297 | 8271 ft | 212 kts | 322° |
| 2026-04-27 00:42 | 13.82645 | 120.79336 | 8147 ft | 209 kts | 322° |
| 2026-04-27 00:43 | 13.83757 | 120.78387 | 7999 ft | 206 kts | 321° |
| 2026-04-27 00:43 | 13.84857 | 120.77452 | 7855 ft | 204 kts | 322° |
| 2026-04-27 00:43 | 13.85953 | 120.76523 | 7715 ft | 203 kts | 322° |
| 2026-04-27 00:43 | 13.87045 | 120.75611 | 7595 ft | 201 kts | 322° |
| 2026-04-27 00:44 | 13.88127 | 120.74710 | 7469 ft | 200 kts | 322° |
| 2026-04-27 00:44 | 13.89201 | 120.73811 | 7352 ft | 199 kts | 323° |
| 2026-04-27 00:44 | 13.90272 | 120.72906 | 7234 ft | 199 kts | 322° |
| 2026-04-27 00:44 | 13.91335 | 120.71997 | 7118 ft | 198 kts | 322° |
| 2026-04-27 00:45 | 13.92395 | 120.71092 | 7001 ft | 197 kts | 322° |
| 2026-04-27 00:45 | 13.93451 | 120.70190 | 6882 ft | 197 kts | 323° |
| 2026-04-27 00:45 | 13.94505 | 120.69282 | 6770 ft | 198 kts | 322° |
| 2026-04-27 00:45 | 13.95560 | 120.68374 | 6655 ft | 198 kts | 322° |
| 2026-04-27 00:46 | 13.96614 | 120.67464 | 6538 ft | 198 kts | 322° |
| 2026-04-27 00:46 | 13.97670 | 120.66549 | 6425 ft | 198 kts | 322° |
| 2026-04-27 00:46 | 13.98705 | 120.65651 | 6308 ft | 197 kts | 322° |
| 2026-04-27 00:46 | 13.99777 | 120.64777 | 6186 ft | 195 kts | 331° |
| 2026-04-27 00:47 | 14.00991 | 120.64166 | 6063 ft | 194 kts | 339° |
| 2026-04-27 00:47 | 14.02225 | 120.63607 | 5945 ft | 194 kts | 340° |
| 2026-04-27 00:47 | 14.03466 | 120.63044 | 5824 ft | 196 kts | 339° |
| 2026-04-27 00:47 | 14.04715 | 120.62480 | 5699 ft | 196 kts | 339° |
| 2026-04-27 00:48 | 14.05962 | 120.61917 | 5570 ft | 195 kts | 340° |
| 2026-04-27 00:48 | 14.07211 | 120.61403 | 5448 ft | 192 kts | 342° |
| 2026-04-27 00:48 | 14.08455 | 120.60912 | 5327 ft | 191 kts | 342° |
| 2026-04-27 00:48 | 14.09694 | 120.60423 | 5206 ft | 190 kts | 342° |
| 2026-04-27 00:49 | 14.10530 | 120.60092 | 5128 ft | 190 kts | 342° |
| 2026-04-27 00:49 | 14.11745 | 120.59609 | 5010 ft | 190 kts | 342° |
| 2026-04-27 00:49 | 14.12998 | 120.59194 | 4896 ft | 190 kts | 351° |
| 2026-04-27 00:49 | 14.14733 | 120.58818 | 4734 ft | 191 kts | 352° |
| 2026-04-27 00:50 | 14.15596 | 120.58631 | 4663 ft | 191 kts | 352° |
| 2026-04-27 00:50 | 14.18191 | 120.58067 | 4408 ft | 191 kts | 352° |
| 2026-04-27 00:50 | 14.19491 | 120.57787 | 4286 ft | 190 kts | 352° |
| 2026-04-27 00:51 | 14.20781 | 120.57509 | 4154 ft | 189 kts | 352° |
| 2026-04-27 00:51 | 14.22059 | 120.57229 | 4036 ft | 187 kts | 353° |
| 2026-04-27 00:51 | 14.23343 | 120.57061 | 3883 ft | 186 kts | 3° |
| 2026-04-27 00:51 | 14.24619 | 120.57138 | 3761 ft | 181 kts | 13° |
| 2026-04-27 00:52 | 14.25839 | 120.57404 | 3671 ft | 178 kts | 18° |
| 2026-04-27 00:52 | 14.27036 | 120.57713 | 3550 ft | 177 kts | 20° |
| 2026-04-27 00:52 | 14.28208 | 120.58070 | 3434 ft | 175 kts | 22° |
| 2026-04-27 00:52 | 14.29378 | 120.58443 | 3279 ft | 176 kts | 22° |
| 2026-04-27 00:53 | 14.30533 | 120.58854 | 3165 ft | 175 kts | 24° |
| 2026-04-27 00:53 | 14.31658 | 120.59277 | 3062 ft | 173 kts | 24° |
| 2026-04-27 00:53 | 14.32781 | 120.59702 | 2959 ft | 171 kts | 25° |
| 2026-04-27 00:53 | 14.33891 | 120.60150 | 2846 ft | 171 kts | 27° |
| 2026-04-27 00:54 | 14.34987 | 120.60657 | 2720 ft | 174 kts | 28° |
| 2026-04-27 00:54 | 14.36061 | 120.61211 | 2636 ft | 171 kts | 31° |
| 2026-04-27 00:54 | 14.37098 | 120.61792 | 2531 ft | 170 kts | 35° |
| 2026-04-27 00:54 | 14.37981 | 120.62590 | 2372 ft | 168 kts | 54° |
| 2026-04-27 00:55 | 14.38533 | 120.63621 | 2351 ft | 162 kts | 65° |
| 2026-04-27 00:55 | 14.38998 | 120.64660 | 2366 ft | 158 kts | 67° |
| 2026-04-27 00:55 | 14.39444 | 120.65696 | 2325 ft | 157 kts | 68° |
| 2026-04-27 00:55 | 14.39881 | 120.66728 | 2285 ft | 156 kts | 67° |
| 2026-04-27 00:56 | 14.40316 | 120.67756 | 2296 ft | 156 kts | 67° |
| 2026-04-27 00:56 | 14.40765 | 120.68775 | 2314 ft | 157 kts | 66° |
| 2026-04-27 00:56 | 14.41236 | 120.69785 | 2320 ft | 157 kts | 65° |
| 2026-04-27 00:56 | 14.41714 | 120.70804 | 2289 ft | 160 kts | 65° |
| 2026-04-27 00:57 | 14.42206 | 120.71841 | 2228 ft | 161 kts | 65° |
| 2026-04-27 00:57 | 14.42698 | 120.72886 | 2130 ft | 163 kts | 66° |
| 2026-04-27 00:57 | 14.43169 | 120.73952 | 2012 ft | 164 kts | 68° |
| 2026-04-27 00:57 | 14.43653 | 120.75030 | 1886 ft | 165 kts | 68° |
| 2026-04-27 00:58 | 14.44085 | 120.76108 | 1823 ft | 160 kts | 70° |
| 2026-04-27 00:58 | 14.44444 | 120.77168 | 1734 ft | 157 kts | 73° |
| 2026-04-27 00:58 | 14.44784 | 120.78235 | 1629 ft | 156 kts | 73° |
| 2026-04-27 00:58 | 14.45122 | 120.79279 | 1558 ft | 152 kts | 70° |
| 2026-04-27 00:59 | 14.45471 | 120.80303 | 1414 ft | 152 kts | 70° |
| 2026-04-27 00:59 | 14.45862 | 120.81309 | 1329 ft | 148 kts | 68° |
| 2026-04-27 00:59 | 14.46271 | 120.82285 | 1249 ft | 147 kts | 67° |
| 2026-04-27 00:59 | 14.46685 | 120.83239 | 1154 ft | 142 kts | 66° |
| 2026-04-27 01:00 | 14.47046 | 120.84153 | 1067 ft | 133 kts | 69° |
| 2026-04-27 01:00 | 14.47373 | 120.85023 | 906 ft | 127 kts | 67° |
| 2026-04-27 01:00 | 14.47719 | 120.85823 | 806 ft | 120 kts | 65° |
| 2026-04-27 01:00 | 14.48029 | 120.86613 | 651 ft | 117 kts | 68° |
| 2026-04-27 01:01 | 14.48302 | 120.87320 | 520 ft | 97 kts | 65° |
| 2026-04-27 01:01 | 14.48549 | 120.87942 | 417 ft | 92 kts | 69° |
| 2026-04-27 01:01 | 14.48800 | 120.88543 | 277 ft | 90 kts | 68° |
| 2026-04-27 01:01 | 14.49030 | 120.89133 | 134 ft | 86 kts | 68° |
| 2026-04-27 01:02 | 14.49240 | 120.89674 | 29 ft | 74 kts | 67° |
| 2026-04-27 01:02 | 14.49400 | 120.90068 | 17 ft | 47 kts | 67° |
| 2026-04-27 01:02 | 14.49508 | 120.90338 | 11 ft | 36 kts | 68° |
| 2026-04-27 01:02 | 14.49591 | 120.90551 | 11 ft | 30 kts | 68° |
| 2026-04-27 01:03 | 14.49670 | 120.90742 | 14 ft | 29 kts | 67° |
| 2026-04-27 01:03 | 14.49676 | 120.90866 | 16 ft | 9 kts | 156° |
| 2026-04-27 01:03 | 14.49631 | 120.90810 | 15 ft | 16 kts | 249° |
| 2026-04-27 01:03 | 14.49583 | 120.90679 | 12 ft | 19 kts | 246° |
| 2026-04-27 01:04 | 14.49524 | 120.90538 | 12 ft | 24 kts | 247° |
| 2026-04-27 01:04 | 14.49455 | 120.90367 | 10 ft | 27 kts | 247° |
| 2026-04-27 01:04 | 14.49391 | 120.90208 | 14 ft | 24 kts | 247° |
| 2026-04-27 01:04 | 14.49328 | 120.90049 | 16 ft | 23 kts | 248° |
| 2026-04-27 01:05 | 14.49267 | 120.89897 | 20 ft | 20 kts | 247° |
| 2026-04-27 01:05 | 14.49219 | 120.89803 | 20 ft | 12 kts | 211° |
| 2026-04-27 01:05 | 14.49197 | 120.89767 | 20 ft | 0 kts | 338° |